sensor_id;sensor_type;location;lat;lon;timestamp;P1;durP1;ratioP1;P2;durP2;ratioP2
9508;SDS011;4792;50.088;8.122;2024-01-11T00:02:11;19.00;;;9.47;;
9508;SDS011;4792;50.088;8.122;2024-01-11T00:04:39;24.77;;;10.80;;
9508;SDS011;4792;50.088;8.122;2024-01-11T00:07:07;20.50;;;10.57;;
9508;SDS011;4792;50.088;8.122;2024-01-11T00:09:38;21.70;;;10.33;;
9508;SDS011;4792;50.088;8.122;2024-01-11T00:12:07;22.03;;;9.80;;
9508;SDS011;4792;50.088;8.122;2024-01-11T00:14:35;20.07;;;10.57;;
9508;SDS011;4792;50.088;8.122;2024-01-11T00:17:04;22.03;;;10.27;;
9508;SDS011;4792;50.088;8.122;2024-01-11T00:19:31;21.37;;;11.20;;
9508;SDS011;4792;50.088;8.122;2024-01-11T00:21:59;21.73;;;10.30;;
9508;SDS011;4792;50.088;8.122;2024-01-11T00:24:27;19.50;;;10.60;;
9508;SDS011;4792;50.088;8.122;2024-01-11T00:26:55;21.73;;;10.43;;
9508;SDS011;4792;50.088;8.122;2024-01-11T00:29:22;19.03;;;9.70;;
9508;SDS011;4792;50.088;8.122;2024-01-11T00:31:50;20.57;;;9.37;;
9508;SDS011;4792;50.088;8.122;2024-01-11T00:34:19;19.50;;;9.67;;
9508;SDS011;4792;50.088;8.122;2024-01-11T00:36:47;16.93;;;9.30;;
9508;SDS011;4792;50.088;8.122;2024-01-11T00:39:15;16.87;;;10.00;;
9508;SDS011;4792;50.088;8.122;2024-01-11T00:41:42;18.77;;;10.23;;
9508;SDS011;4792;50.088;8.122;2024-01-11T00:44:10;21.93;;;9.97;;
9508;SDS011;4792;50.088;8.122;2024-01-11T00:46:39;18.53;;;9.83;;
9508;SDS011;4792;50.088;8.122;2024-01-11T00:49:07;19.63;;;9.17;;
9508;SDS011;4792;50.088;8.122;2024-01-11T00:51:36;18.83;;;9.77;;
9508;SDS011;4792;50.088;8.122;2024-01-11T00:54:04;17.33;;;9.43;;
9508;SDS011;4792;50.088;8.122;2024-01-11T00:56:32;19.13;;;9.43;;
9508;SDS011;4792;50.088;8.122;2024-01-11T00:59:00;20.83;;;10.33;;
9508;SDS011;4792;50.088;8.122;2024-01-11T01:01:28;17.63;;;9.47;;
9508;SDS011;4792;50.088;8.122;2024-01-11T01:03:55;21.73;;;10.03;;
9508;SDS011;4792;50.088;8.122;2024-01-11T01:06:23;19.53;;;10.83;;
9508;SDS011;4792;50.088;8.122;2024-01-11T01:08:53;19.00;;;10.10;;
9508;SDS011;4792;50.088;8.122;2024-01-11T01:11:21;19.43;;;9.13;;
9508;SDS011;4792;50.088;8.122;2024-01-11T01:13:48;18.20;;;10.40;;
9508;SDS011;4792;50.088;8.122;2024-01-11T01:16:16;20.93;;;10.13;;
9508;SDS011;4792;50.088;8.122;2024-01-11T01:18:44;19.73;;;10.60;;
9508;SDS011;4792;50.088;8.122;2024-01-11T01:21:12;19.47;;;10.37;;
9508;SDS011;4792;50.088;8.122;2024-01-11T01:23:39;21.03;;;10.93;;
9508;SDS011;4792;50.088;8.122;2024-01-11T01:26:08;20.47;;;10.53;;
9508;SDS011;4792;50.088;8.122;2024-01-11T01:28:36;20.77;;;10.57;;
9508;SDS011;4792;50.088;8.122;2024-01-11T01:31:04;20.47;;;11.07;;
9508;SDS011;4792;50.088;8.122;2024-01-11T01:33:31;21.87;;;10.07;;
9508;SDS011;4792;50.088;8.122;2024-01-11T01:35:59;22.57;;;10.27;;
9508;SDS011;4792;50.088;8.122;2024-01-11T01:38:27;20.13;;;10.50;;
9508;SDS011;4792;50.088;8.122;2024-01-11T01:40:57;20.20;;;10.30;;
9508;SDS011;4792;50.088;8.122;2024-01-11T01:43:26;22.63;;;10.83;;
9508;SDS011;4792;50.088;8.122;2024-01-11T01:45:53;24.67;;;9.90;;
9508;SDS011;4792;50.088;8.122;2024-01-11T01:48:21;19.20;;;9.73;;
9508;SDS011;4792;50.088;8.122;2024-01-11T01:50:49;17.07;;;9.43;;
9508;SDS011;4792;50.088;8.122;2024-01-11T01:53:17;19.33;;;10.27;;
9508;SDS011;4792;50.088;8.122;2024-01-11T01:55:45;20.27;;;9.90;;
9508;SDS011;4792;50.088;8.122;2024-01-11T01:58:14;18.27;;;9.77;;
9508;SDS011;4792;50.088;8.122;2024-01-11T02:00:44;18.90;;;9.97;;
9508;SDS011;4792;50.088;8.122;2024-01-11T02:03:12;18.50;;;10.20;;
9508;SDS011;4792;50.088;8.122;2024-01-11T02:05:40;22.13;;;10.37;;
9508;SDS011;4792;50.088;8.122;2024-01-11T02:08:08;18.73;;;9.83;;
9508;SDS011;4792;50.088;8.122;2024-01-11T02:10:39;18.90;;;9.80;;
9508;SDS011;4792;50.088;8.122;2024-01-11T02:13:07;19.37;;;10.97;;
9508;SDS011;4792;50.088;8.122;2024-01-11T02:15:36;18.23;;;9.97;;
9508;SDS011;4792;50.088;8.122;2024-01-11T02:18:05;18.53;;;9.90;;
9508;SDS011;4792;50.088;8.122;2024-01-11T02:20:33;18.83;;;9.80;;
9508;SDS011;4792;50.088;8.122;2024-01-11T02:23:01;22.47;;;11.23;;
9508;SDS011;4792;50.088;8.122;2024-01-11T02:25:32;20.40;;;11.00;;
9508;SDS011;4792;50.088;8.122;2024-01-11T02:28:00;23.70;;;10.43;;
9508;SDS011;4792;50.088;8.122;2024-01-11T02:30:27;18.70;;;10.40;;
9508;SDS011;4792;50.088;8.122;2024-01-11T02:32:55;19.67;;;10.40;;
9508;SDS011;4792;50.088;8.122;2024-01-11T02:35:23;18.73;;;10.27;;
9508;SDS011;4792;50.088;8.122;2024-01-11T02:37:51;22.50;;;11.27;;
9508;SDS011;4792;50.088;8.122;2024-01-11T02:40:19;19.33;;;10.67;;
9508;SDS011;4792;50.088;8.122;2024-01-11T02:42:48;17.83;;;10.03;;
9508;SDS011;4792;50.088;8.122;2024-01-11T02:45:16;20.27;;;10.43;;
9508;SDS011;4792;50.088;8.122;2024-01-11T02:47:45;21.37;;;11.37;;
9508;SDS011;4792;50.088;8.122;2024-01-11T02:50:13;20.33;;;11.17;;
9508;SDS011;4792;50.088;8.122;2024-01-11T02:52:40;25.80;;;12.10;;
9508;SDS011;4792;50.088;8.122;2024-01-11T02:55:08;21.87;;;10.70;;
9508;SDS011;4792;50.088;8.122;2024-01-11T02:57:36;29.33;;;14.13;;
9508;SDS011;4792;50.088;8.122;2024-01-11T03:00:06;25.67;;;12.43;;
9508;SDS011;4792;50.088;8.122;2024-01-11T03:02:34;23.90;;;12.20;;
9508;SDS011;4792;50.088;8.122;2024-01-11T03:05:02;23.70;;;12.40;;
9508;SDS011;4792;50.088;8.122;2024-01-11T03:07:30;22.53;;;11.83;;
9508;SDS011;4792;50.088;8.122;2024-01-11T03:09:59;21.20;;;11.87;;
9508;SDS011;4792;50.088;8.122;2024-01-11T03:12:26;21.17;;;11.33;;
9508;SDS011;4792;50.088;8.122;2024-01-11T03:14:55;22.37;;;12.20;;
9508;SDS011;4792;50.088;8.122;2024-01-11T03:17:24;24.43;;;12.33;;
9508;SDS011;4792;50.088;8.122;2024-01-11T03:19:51;26.00;;;12.83;;
9508;SDS011;4792;50.088;8.122;2024-01-11T03:22:19;23.10;;;13.17;;
9508;SDS011;4792;50.088;8.122;2024-01-11T03:24:47;28.10;;;12.80;;
9508;SDS011;4792;50.088;8.122;2024-01-11T03:27:14;22.50;;;12.03;;
9508;SDS011;4792;50.088;8.122;2024-01-11T03:29:42;23.73;;;12.77;;
9508;SDS011;4792;50.088;8.122;2024-01-11T03:32:10;29.70;;;13.33;;
9508;SDS011;4792;50.088;8.122;2024-01-11T03:34:41;26.33;;;13.00;;
9508;SDS011;4792;50.088;8.122;2024-01-11T03:37:09;25.70;;;12.20;;
9508;SDS011;4792;50.088;8.122;2024-01-11T03:39:37;20.30;;;12.40;;
9508;SDS011;4792;50.088;8.122;2024-01-11T03:42:04;26.37;;;12.30;;
9508;SDS011;4792;50.088;8.122;2024-01-11T03:44:32;25.03;;;12.83;;
9508;SDS011;4792;50.088;8.122;2024-01-11T03:47:00;24.10;;;13.00;;
9508;SDS011;4792;50.088;8.122;2024-01-11T03:49:28;24.47;;;12.47;;
9508;SDS011;4792;50.088;8.122;2024-01-11T03:51:57;27.40;;;12.60;;
9508;SDS011;4792;50.088;8.122;2024-01-11T03:54:24;26.80;;;12.53;;
9508;SDS011;4792;50.088;8.122;2024-01-11T03:56:52;24.43;;;11.97;;
9508;SDS011;4792;50.088;8.122;2024-01-11T03:59:20;27.13;;;11.73;;
9508;SDS011;4792;50.088;8.122;2024-01-11T04:01:47;23.20;;;12.30;;
9508;SDS011;4792;50.088;8.122;2024-01-11T04:04:15;23.93;;;12.57;;
9508;SDS011;4792;50.088;8.122;2024-01-11T04:06:43;23.80;;;12.40;;
9508;SDS011;4792;50.088;8.122;2024-01-11T04:09:12;28.17;;;13.20;;
9508;SDS011;4792;50.088;8.122;2024-01-11T04:11:40;24.80;;;11.60;;
9508;SDS011;4792;50.088;8.122;2024-01-11T04:14:08;22.33;;;11.93;;
9508;SDS011;4792;50.088;8.122;2024-01-11T04:16:39;24.70;;;11.13;;
9508;SDS011;4792;50.088;8.122;2024-01-11T04:19:07;23.67;;;10.90;;
9508;SDS011;4792;50.088;8.122;2024-01-11T04:21:35;19.10;;;9.83;;
9508;SDS011;4792;50.088;8.122;2024-01-11T04:24:07;29.63;;;15.27;;
9508;SDS011;4792;50.088;8.122;2024-01-11T04:26:36;26.13;;;12.70;;
9508;SDS011;4792;50.088;8.122;2024-01-11T04:29:04;32.07;;;16.33;;
9508;SDS011;4792;50.088;8.122;2024-01-11T04:31:32;24.97;;;12.20;;
9508;SDS011;4792;50.088;8.122;2024-01-11T04:34:00;32.90;;;17.13;;
9508;SDS011;4792;50.088;8.122;2024-01-11T04:36:28;25.83;;;13.23;;
9508;SDS011;4792;50.088;8.122;2024-01-11T04:38:56;31.83;;;16.40;;
9508;SDS011;4792;50.088;8.122;2024-01-11T04:41:23;36.03;;;17.73;;
9508;SDS011;4792;50.088;8.122;2024-01-11T04:43:53;33.23;;;17.60;;
9508;SDS011;4792;50.088;8.122;2024-01-11T04:46:22;31.73;;;15.50;;
9508;SDS011;4792;50.088;8.122;2024-01-11T04:48:50;35.30;;;17.00;;
9508;SDS011;4792;50.088;8.122;2024-01-11T04:51:19;36.90;;;17.27;;
9508;SDS011;4792;50.088;8.122;2024-01-11T04:53:46;34.10;;;17.33;;
9508;SDS011;4792;50.088;8.122;2024-01-11T04:56:14;34.40;;;17.00;;
9508;SDS011;4792;50.088;8.122;2024-01-11T04:58:44;25.37;;;14.03;;
9508;SDS011;4792;50.088;8.122;2024-01-11T05:01:13;29.47;;;14.67;;
9508;SDS011;4792;50.088;8.122;2024-01-11T05:03:41;26.23;;;13.93;;
9508;SDS011;4792;50.088;8.122;2024-01-11T05:06:14;28.43;;;14.53;;
9508;SDS011;4792;50.088;8.122;2024-01-11T05:08:42;27.73;;;14.10;;
9508;SDS011;4792;50.088;8.122;2024-01-11T05:11:14;30.00;;;16.53;;
9508;SDS011;4792;50.088;8.122;2024-01-11T05:13:42;34.83;;;18.73;;
9508;SDS011;4792;50.088;8.122;2024-01-11T05:16:17;32.33;;;15.43;;
9508;SDS011;4792;50.088;8.122;2024-01-11T05:18:49;39.67;;;19.90;;
9508;SDS011;4792;50.088;8.122;2024-01-11T05:21:17;40.47;;;19.17;;
9508;SDS011;4792;50.088;8.122;2024-01-11T05:23:45;33.50;;;16.20;;
9508;SDS011;4792;50.088;8.122;2024-01-11T05:26:13;29.27;;;15.97;;
9508;SDS011;4792;50.088;8.122;2024-01-11T05:28:41;34.00;;;16.03;;
9508;SDS011;4792;50.088;8.122;2024-01-11T05:31:09;32.00;;;16.73;;
9508;SDS011;4792;50.088;8.122;2024-01-11T05:33:39;37.77;;;18.13;;
9508;SDS011;4792;50.088;8.122;2024-01-11T05:36:07;38.80;;;18.87;;
9508;SDS011;4792;50.088;8.122;2024-01-11T05:38:35;33.10;;;17.00;;
9508;SDS011;4792;50.088;8.122;2024-01-11T05:41:03;32.50;;;18.37;;
9508;SDS011;4792;50.088;8.122;2024-01-11T05:43:31;34.10;;;15.33;;
9508;SDS011;4792;50.088;8.122;2024-01-11T05:45:58;31.47;;;16.23;;
9508;SDS011;4792;50.088;8.122;2024-01-11T05:48:29;36.17;;;17.77;;
9508;SDS011;4792;50.088;8.122;2024-01-11T05:50:58;38.67;;;20.13;;
9508;SDS011;4792;50.088;8.122;2024-01-11T05:53:26;36.60;;;18.80;;
9508;SDS011;4792;50.088;8.122;2024-01-11T05:55:54;41.90;;;19.50;;
9508;SDS011;4792;50.088;8.122;2024-01-11T05:58:22;37.77;;;18.40;;
9508;SDS011;4792;50.088;8.122;2024-01-11T06:00:50;35.23;;;19.17;;
9508;SDS011;4792;50.088;8.122;2024-01-11T06:03:18;35.93;;;18.70;;
9508;SDS011;4792;50.088;8.122;2024-01-11T06:05:45;39.03;;;19.27;;
9508;SDS011;4792;50.088;8.122;2024-01-11T06:08:14;37.47;;;17.87;;
9508;SDS011;4792;50.088;8.122;2024-01-11T06:10:43;35.93;;;19.43;;
9508;SDS011;4792;50.088;8.122;2024-01-11T06:13:11;40.27;;;20.07;;
9508;SDS011;4792;50.088;8.122;2024-01-11T06:15:38;44.30;;;19.07;;
9508;SDS011;4792;50.088;8.122;2024-01-11T06:18:06;38.07;;;19.27;;
9508;SDS011;4792;50.088;8.122;2024-01-11T06:20:34;38.67;;;18.83;;
9508;SDS011;4792;50.088;8.122;2024-01-11T06:23:04;38.37;;;20.10;;
9508;SDS011;4792;50.088;8.122;2024-01-11T06:25:34;37.60;;;19.47;;
9508;SDS011;4792;50.088;8.122;2024-01-11T06:28:02;41.23;;;18.90;;
9508;SDS011;4792;50.088;8.122;2024-01-11T06:30:32;41.10;;;20.03;;
9508;SDS011;4792;50.088;8.122;2024-01-11T06:33:00;39.90;;;18.40;;
9508;SDS011;4792;50.088;8.122;2024-01-11T06:35:28;39.60;;;19.47;;
9508;SDS011;4792;50.088;8.122;2024-01-11T06:37:55;39.60;;;20.60;;
9508;SDS011;4792;50.088;8.122;2024-01-11T06:40:23;38.77;;;19.27;;
9508;SDS011;4792;50.088;8.122;2024-01-11T06:42:52;43.37;;;21.10;;
9508;SDS011;4792;50.088;8.122;2024-01-11T06:45:20;46.73;;;24.20;;
9508;SDS011;4792;50.088;8.122;2024-01-11T06:47:48;48.73;;;23.57;;
9508;SDS011;4792;50.088;8.122;2024-01-11T06:50:16;78.53;;;34.63;;
9508;SDS011;4792;50.088;8.122;2024-01-11T06:52:44;60.93;;;28.73;;
9508;SDS011;4792;50.088;8.122;2024-01-11T06:55:11;55.10;;;25.70;;
9508;SDS011;4792;50.088;8.122;2024-01-11T06:57:39;47.53;;;21.20;;
9508;SDS011;4792;50.088;8.122;2024-01-11T07:00:08;44.40;;;20.37;;
9508;SDS011;4792;50.088;8.122;2024-01-11T07:02:36;52.87;;;25.13;;
9508;SDS011;4792;50.088;8.122;2024-01-11T07:05:06;41.20;;;22.07;;
9508;SDS011;4792;50.088;8.122;2024-01-11T07:07:34;43.03;;;21.30;;
9508;SDS011;4792;50.088;8.122;2024-01-11T07:10:02;41.00;;;21.40;;
9508;SDS011;4792;50.088;8.122;2024-01-11T07:12:31;45.07;;;21.90;;
9508;SDS011;4792;50.088;8.122;2024-01-11T07:14:59;42.57;;;22.37;;
9508;SDS011;4792;50.088;8.122;2024-01-11T07:17:28;49.23;;;21.80;;
9508;SDS011;4792;50.088;8.122;2024-01-11T07:19:56;37.53;;;18.70;;
9508;SDS011;4792;50.088;8.122;2024-01-11T07:22:23;38.03;;;20.03;;
9508;SDS011;4792;50.088;8.122;2024-01-11T07:24:51;45.47;;;20.87;;
9508;SDS011;4792;50.088;8.122;2024-01-11T07:27:19;43.93;;;22.53;;
9508;SDS011;4792;50.088;8.122;2024-01-11T07:29:46;45.10;;;21.73;;
9508;SDS011;4792;50.088;8.122;2024-01-11T07:32:14;46.67;;;21.50;;
9508;SDS011;4792;50.088;8.122;2024-01-11T07:34:43;43.83;;;21.93;;
9508;SDS011;4792;50.088;8.122;2024-01-11T07:37:11;43.90;;;20.50;;
9508;SDS011;4792;50.088;8.122;2024-01-11T07:39:38;48.20;;;20.57;;
9508;SDS011;4792;50.088;8.122;2024-01-11T07:42:07;38.77;;;20.77;;
9508;SDS011;4792;50.088;8.122;2024-01-11T07:44:34;39.50;;;20.00;;
9508;SDS011;4792;50.088;8.122;2024-01-11T07:47:02;41.17;;;20.73;;
9508;SDS011;4792;50.088;8.122;2024-01-11T07:49:30;42.47;;;20.57;;
9508;SDS011;4792;50.088;8.122;2024-01-11T07:51:59;40.10;;;19.30;;
9508;SDS011;4792;50.088;8.122;2024-01-11T07:54:27;41.23;;;21.70;;
9508;SDS011;4792;50.088;8.122;2024-01-11T07:56:54;34.60;;;18.00;;
9508;SDS011;4792;50.088;8.122;2024-01-11T07:59:22;39.17;;;19.93;;
9508;SDS011;4792;50.088;8.122;2024-01-11T08:01:50;43.50;;;21.77;;
9508;SDS011;4792;50.088;8.122;2024-01-11T08:04:18;49.70;;;22.73;;
9508;SDS011;4792;50.088;8.122;2024-01-11T08:06:46;42.47;;;20.43;;
9508;SDS011;4792;50.088;8.122;2024-01-11T08:09:16;38.73;;;19.83;;
9508;SDS011;4792;50.088;8.122;2024-01-11T08:11:44;42.47;;;19.30;;
9508;SDS011;4792;50.088;8.122;2024-01-11T08:14:16;39.50;;;19.90;;
9508;SDS011;4792;50.088;8.122;2024-01-11T08:16:44;38.80;;;18.57;;
9508;SDS011;4792;50.088;8.122;2024-01-11T08:19:12;37.00;;;19.00;;
9508;SDS011;4792;50.088;8.122;2024-01-11T08:21:40;39.83;;;18.80;;
9508;SDS011;4792;50.088;8.122;2024-01-11T08:24:08;39.37;;;18.93;;
9508;SDS011;4792;50.088;8.122;2024-01-11T08:26:37;39.87;;;19.37;;
9508;SDS011;4792;50.088;8.122;2024-01-11T08:29:05;37.17;;;18.00;;
9508;SDS011;4792;50.088;8.122;2024-01-11T08:31:33;37.23;;;18.67;;
9508;SDS011;4792;50.088;8.122;2024-01-11T08:34:04;41.33;;;19.67;;
9508;SDS011;4792;50.088;8.122;2024-01-11T08:36:32;41.73;;;19.90;;
9508;SDS011;4792;50.088;8.122;2024-01-11T08:39:01;36.13;;;17.13;;
9508;SDS011;4792;50.088;8.122;2024-01-11T08:41:42;39.30;;;19.63;;
9508;SDS011;4792;50.088;8.122;2024-01-11T08:44:16;43.50;;;20.23;;
9508;SDS011;4792;50.088;8.122;2024-01-11T08:46:50;37.27;;;20.37;;
9508;SDS011;4792;50.088;8.122;2024-01-11T08:49:30;39.97;;;19.37;;
9508;SDS011;4792;50.088;8.122;2024-01-11T08:52:03;36.97;;;19.50;;
9508;SDS011;4792;50.088;8.122;2024-01-11T08:54:33;36.40;;;19.27;;
9508;SDS011;4792;50.088;8.122;2024-01-11T08:57:04;36.20;;;19.27;;
9508;SDS011;4792;50.088;8.122;2024-01-11T08:59:33;41.17;;;20.70;;
9508;SDS011;4792;50.088;8.122;2024-01-11T09:02:02;38.07;;;20.07;;
9508;SDS011;4792;50.088;8.122;2024-01-11T09:04:41;37.47;;;18.93;;
9508;SDS011;4792;50.088;8.122;2024-01-11T09:07:10;41.10;;;21.80;;
9508;SDS011;4792;50.088;8.122;2024-01-11T09:09:38;37.17;;;19.43;;
9508;SDS011;4792;50.088;8.122;2024-01-11T09:12:20;31.30;;;18.00;;
9508;SDS011;4792;50.088;8.122;2024-01-11T09:14:49;36.13;;;18.20;;
9508;SDS011;4792;50.088;8.122;2024-01-11T09:17:20;36.37;;;19.07;;
9508;SDS011;4792;50.088;8.122;2024-01-11T09:19:51;37.27;;;20.17;;
9508;SDS011;4792;50.088;8.122;2024-01-11T09:22:20;33.00;;;18.07;;
9508;SDS011;4792;50.088;8.122;2024-01-11T09:24:49;43.13;;;21.00;;
9508;SDS011;4792;50.088;8.122;2024-01-11T09:27:17;36.47;;;19.10;;
9508;SDS011;4792;50.088;8.122;2024-01-11T09:29:48;37.13;;;19.80;;
9508;SDS011;4792;50.088;8.122;2024-01-11T09:32:22;36.00;;;19.83;;
9508;SDS011;4792;50.088;8.122;2024-01-11T09:34:50;40.87;;;20.97;;
9508;SDS011;4792;50.088;8.122;2024-01-11T09:37:18;40.60;;;20.13;;
9508;SDS011;4792;50.088;8.122;2024-01-11T09:39:47;41.20;;;22.17;;
9508;SDS011;4792;50.088;8.122;2024-01-11T09:42:15;39.80;;;20.70;;
9508;SDS011;4792;50.088;8.122;2024-01-11T09:44:44;42.43;;;23.40;;
9508;SDS011;4792;50.088;8.122;2024-01-11T09:47:15;41.20;;;20.77;;
9508;SDS011;4792;50.088;8.122;2024-01-11T09:49:45;44.97;;;23.73;;
9508;SDS011;4792;50.088;8.122;2024-01-11T09:52:18;37.20;;;19.73;;
9508;SDS011;4792;50.088;8.122;2024-01-11T09:54:48;40.57;;;21.40;;
9508;SDS011;4792;50.088;8.122;2024-01-11T09:57:19;37.03;;;19.40;;
9508;SDS011;4792;50.088;8.122;2024-01-11T09:59:53;36.63;;;19.90;;
9508;SDS011;4792;50.088;8.122;2024-01-11T10:02:26;34.63;;;19.60;;
9508;SDS011;4792;50.088;8.122;2024-01-11T10:04:57;35.77;;;20.47;;
9508;SDS011;4792;50.088;8.122;2024-01-11T10:07:26;38.50;;;21.63;;
9508;SDS011;4792;50.088;8.122;2024-01-11T10:09:57;36.30;;;20.57;;
9508;SDS011;4792;50.088;8.122;2024-01-11T10:12:27;19.00;;;11.13;;
9508;SDS011;4792;50.088;8.122;2024-01-11T10:15:00;38.10;;;21.70;;
9508;SDS011;4792;50.088;8.122;2024-01-11T10:17:35;39.73;;;22.47;;
9508;SDS011;4792;50.088;8.122;2024-01-11T10:20:07;35.43;;;20.27;;
9508;SDS011;4792;50.088;8.122;2024-01-11T10:22:37;34.73;;;20.60;;
9508;SDS011;4792;50.088;8.122;2024-01-11T10:25:11;39.50;;;21.63;;
9508;SDS011;4792;50.088;8.122;2024-01-11T10:28:01;38.90;;;20.67;;
9508;SDS011;4792;50.088;8.122;2024-01-11T10:30:50;37.93;;;20.50;;
9508;SDS011;4792;50.088;8.122;2024-01-11T10:33:22;38.90;;;20.63;;
9508;SDS011;4792;50.088;8.122;2024-01-11T10:35:54;42.33;;;25.07;;
9508;SDS011;4792;50.088;8.122;2024-01-11T10:38:27;33.57;;;19.93;;
9508;SDS011;4792;50.088;8.122;2024-01-11T10:40:59;32.93;;;18.73;;
9508;SDS011;4792;50.088;8.122;2024-01-11T10:43:58;38.17;;;20.80;;
9508;SDS011;4792;50.088;8.122;2024-01-11T10:46:31;37.07;;;21.23;;
9508;SDS011;4792;50.088;8.122;2024-01-11T10:49:10;40.80;;;20.70;;
9508;SDS011;4792;50.088;8.122;2024-01-11T10:51:40;48.37;;;25.40;;
9508;SDS011;4792;50.088;8.122;2024-01-11T10:54:11;37.33;;;20.27;;
9508;SDS011;4792;50.088;8.122;2024-01-11T10:56:42;36.30;;;20.13;;
9508;SDS011;4792;50.088;8.122;2024-01-11T10:59:11;41.43;;;24.50;;
9508;SDS011;4792;50.088;8.122;2024-01-11T11:01:40;37.97;;;20.40;;
9508;SDS011;4792;50.088;8.122;2024-01-11T11:04:15;35.93;;;20.60;;
9508;SDS011;4792;50.088;8.122;2024-01-11T11:06:44;34.03;;;18.80;;
9508;SDS011;4792;50.088;8.122;2024-01-11T11:09:12;39.83;;;21.97;;
9508;SDS011;4792;50.088;8.122;2024-01-11T11:11:41;36.33;;;21.23;;
9508;SDS011;4792;50.088;8.122;2024-01-11T11:14:10;37.10;;;20.83;;
9508;SDS011;4792;50.088;8.122;2024-01-11T11:16:38;38.47;;;20.57;;
9508;SDS011;4792;50.088;8.122;2024-01-11T11:19:06;35.70;;;20.10;;
9508;SDS011;4792;50.088;8.122;2024-01-11T11:21:42;38.00;;;21.20;;
9508;SDS011;4792;50.088;8.122;2024-01-11T11:24:16;33.33;;;19.67;;
9508;SDS011;4792;50.088;8.122;2024-01-11T11:26:45;32.93;;;19.90;;
9508;SDS011;4792;50.088;8.122;2024-01-11T11:29:14;31.63;;;18.97;;
9508;SDS011;4792;50.088;8.122;2024-01-11T11:31:47;30.20;;;17.93;;
9508;SDS011;4792;50.088;8.122;2024-01-11T11:34:20;29.10;;;18.37;;
9508;SDS011;4792;50.088;8.122;2024-01-11T11:36:50;31.77;;;17.93;;
9508;SDS011;4792;50.088;8.122;2024-01-11T11:39:21;32.73;;;18.23;;
9508;SDS011;4792;50.088;8.122;2024-01-11T11:41:51;31.17;;;19.20;;
9508;SDS011;4792;50.088;8.122;2024-01-11T11:44:24;28.80;;;18.13;;
9508;SDS011;4792;50.088;8.122;2024-01-11T11:46:52;32.67;;;18.87;;
9508;SDS011;4792;50.088;8.122;2024-01-11T11:49:21;32.17;;;17.87;;
9508;SDS011;4792;50.088;8.122;2024-01-11T11:51:50;31.23;;;19.53;;
9508;SDS011;4792;50.088;8.122;2024-01-11T11:54:18;32.97;;;19.17;;
9508;SDS011;4792;50.088;8.122;2024-01-11T11:56:46;33.40;;;20.83;;
9508;SDS011;4792;50.088;8.122;2024-01-11T11:59:14;30.93;;;19.90;;
9508;SDS011;4792;50.088;8.122;2024-01-11T12:01:42;41.27;;;21.83;;
9508;SDS011;4792;50.088;8.122;2024-01-11T12:04:13;30.50;;;18.37;;
9508;SDS011;4792;50.088;8.122;2024-01-11T12:06:43;32.23;;;19.17;;
9508;SDS011;4792;50.088;8.122;2024-01-11T12:09:14;32.37;;;19.43;;
9508;SDS011;4792;50.088;8.122;2024-01-11T12:11:47;33.70;;;19.33;;
9508;SDS011;4792;50.088;8.122;2024-01-11T12:14:32;33.27;;;19.80;;
9508;SDS011;4792;50.088;8.122;2024-01-11T12:17:00;29.10;;;19.30;;
9508;SDS011;4792;50.088;8.122;2024-01-11T12:19:28;30.57;;;18.47;;
9508;SDS011;4792;50.088;8.122;2024-01-11T12:21:56;29.63;;;19.27;;
9508;SDS011;4792;50.088;8.122;2024-01-11T12:24:25;28.73;;;18.37;;
9508;SDS011;4792;50.088;8.122;2024-01-11T12:26:53;30.17;;;17.63;;
9508;SDS011;4792;50.088;8.122;2024-01-11T12:29:22;30.93;;;18.50;;
9508;SDS011;4792;50.088;8.122;2024-01-11T12:31:50;30.10;;;18.20;;
9508;SDS011;4792;50.088;8.122;2024-01-11T12:34:19;29.80;;;19.30;;
9508;SDS011;4792;50.088;8.122;2024-01-11T12:36:47;28.90;;;18.87;;
9508;SDS011;4792;50.088;8.122;2024-01-11T12:39:20;32.20;;;18.60;;
9508;SDS011;4792;50.088;8.122;2024-01-11T12:41:50;30.70;;;19.00;;
9508;SDS011;4792;50.088;8.122;2024-01-11T12:44:20;28.83;;;17.83;;
9508;SDS011;4792;50.088;8.122;2024-01-11T12:46:52;29.70;;;18.23;;
9508;SDS011;4792;50.088;8.122;2024-01-11T12:49:19;29.97;;;18.83;;
9508;SDS011;4792;50.088;8.122;2024-01-11T12:51:49;31.73;;;18.30;;
9508;SDS011;4792;50.088;8.122;2024-01-11T12:54:19;28.27;;;18.83;;
9508;SDS011;4792;50.088;8.122;2024-01-11T12:56:52;29.17;;;18.07;;
9508;SDS011;4792;50.088;8.122;2024-01-11T12:59:20;27.00;;;18.20;;
9508;SDS011;4792;50.088;8.122;2024-01-11T13:01:55;29.60;;;17.97;;
9508;SDS011;4792;50.088;8.122;2024-01-11T13:04:26;27.27;;;16.67;;
9508;SDS011;4792;50.088;8.122;2024-01-11T13:06:55;25.47;;;15.43;;
9508;SDS011;4792;50.088;8.122;2024-01-11T13:09:26;22.93;;;15.80;;
9508;SDS011;4792;50.088;8.122;2024-01-11T13:11:56;26.37;;;17.07;;
9508;SDS011;4792;50.088;8.122;2024-01-11T13:14:26;25.80;;;15.93;;
9508;SDS011;4792;50.088;8.122;2024-01-11T13:16:58;28.03;;;17.30;;
9508;SDS011;4792;50.088;8.122;2024-01-11T13:19:27;23.93;;;16.40;;
9508;SDS011;4792;50.088;8.122;2024-01-11T13:21:56;23.23;;;15.57;;
9508;SDS011;4792;50.088;8.122;2024-01-11T13:24:25;23.03;;;14.97;;
9508;SDS011;4792;50.088;8.122;2024-01-11T13:26:53;23.43;;;14.27;;
9508;SDS011;4792;50.088;8.122;2024-01-11T13:29:23;21.53;;;14.67;;
9508;SDS011;4792;50.088;8.122;2024-01-11T13:31:54;25.80;;;14.40;;
9508;SDS011;4792;50.088;8.122;2024-01-11T13:34:24;21.30;;;14.97;;
9508;SDS011;4792;50.088;8.122;2024-01-11T13:36:56;22.40;;;15.30;;
9508;SDS011;4792;50.088;8.122;2024-01-11T13:39:26;22.90;;;14.73;;
9508;SDS011;4792;50.088;8.122;2024-01-11T13:41:56;22.30;;;13.63;;
9508;SDS011;4792;50.088;8.122;2024-01-11T13:44:28;21.70;;;14.87;;
9508;SDS011;4792;50.088;8.122;2024-01-11T13:46:58;21.77;;;13.80;;
9508;SDS011;4792;50.088;8.122;2024-01-11T13:49:29;21.47;;;12.40;;
9508;SDS011;4792;50.088;8.122;2024-01-11T13:51:58;18.43;;;12.13;;
9508;SDS011;4792;50.088;8.122;2024-01-11T13:54:27;19.97;;;13.23;;
9508;SDS011;4792;50.088;8.122;2024-01-11T13:56:57;22.93;;;13.40;;
9508;SDS011;4792;50.088;8.122;2024-01-11T13:59:37;21.83;;;15.00;;
9508;SDS011;4792;50.088;8.122;2024-01-11T14:02:06;20.67;;;13.53;;
9508;SDS011;4792;50.088;8.122;2024-01-11T14:04:41;21.07;;;14.90;;
9508;SDS011;4792;50.088;8.122;2024-01-11T14:07:17;20.77;;;14.23;;
9508;SDS011;4792;50.088;8.122;2024-01-11T14:09:52;21.00;;;13.53;;
9508;SDS011;4792;50.088;8.122;2024-01-11T14:12:22;20.43;;;13.30;;
9508;SDS011;4792;50.088;8.122;2024-01-11T14:14:58;18.00;;;12.87;;
9508;SDS011;4792;50.088;8.122;2024-01-11T14:17:35;18.63;;;12.63;;
9508;SDS011;4792;50.088;8.122;2024-01-11T14:20:24;22.60;;;11.93;;
9508;SDS011;4792;50.088;8.122;2024-01-11T14:23:01;20.30;;;13.33;;
9508;SDS011;4792;50.088;8.122;2024-01-11T14:25:32;19.10;;;12.57;;
9508;SDS011;4792;50.088;8.122;2024-01-11T14:28:01;18.53;;;12.30;;
9508;SDS011;4792;50.088;8.122;2024-01-11T14:30:53;20.97;;;12.53;;
9508;SDS011;4792;50.088;8.122;2024-01-11T14:33:44;21.53;;;12.53;;
9508;SDS011;4792;50.088;8.122;2024-01-11T14:36:21;19.10;;;12.40;;
9508;SDS011;4792;50.088;8.122;2024-01-11T14:39:01;17.97;;;12.00;;
9508;SDS011;4792;50.088;8.122;2024-01-11T14:41:47;19.90;;;13.20;;
9508;SDS011;4792;50.088;8.122;2024-01-11T14:44:26;20.63;;;11.80;;
9508;SDS011;4792;50.088;8.122;2024-01-11T14:47:05;18.80;;;12.07;;
9508;SDS011;4792;50.088;8.122;2024-01-11T14:49:48;19.50;;;11.60;;
9508;SDS011;4792;50.088;8.122;2024-01-11T14:52:21;21.03;;;11.77;;
9508;SDS011;4792;50.088;8.122;2024-01-11T14:55:06;15.47;;;10.67;;
9508;SDS011;4792;50.088;8.122;2024-01-11T14:58:01;18.57;;;11.73;;
9508;SDS011;4792;50.088;8.122;2024-01-11T15:01:09;17.87;;;11.00;;
9508;SDS011;4792;50.088;8.122;2024-01-11T15:03:53;16.30;;;10.73;;
9508;SDS011;4792;50.088;8.122;2024-01-11T15:06:36;18.73;;;10.43;;